Time;durP1;ratioP1;P1;durP2;ratioP2;P2;SDS_P1;SDS_P2;PMS_P1;PMS_P2;Temp;Humidity;BMP_temperature;BMP_pressure;BME280_temperature;BME280_humidity;BME280_pressure;Samples;Min_cycle;Max_cycle;Signal;HPM_P1;HPM_P2
2022/03/16 00:02:05;;;;;;;;;31.67;31.33;;;;;;;;5184982;27;8806;-74
2022/03/16 00:04:30;;;;;;;;;26.50;26.25;;;;;;;;5185155;27;13748;-74
2022/03/16 00:06:55;;;;;;;;;26.25;25.75;;;;;;;;5185194;27;12213;-74
2022/03/16 00:09:20;;;;;;;;;31.67;29.00;;;;;;;;5185167;27;9591;-74
2022/03/16 00:11:46;;;;;;;;;34.00;31.33;;;;;;;;5185052;27;13277;-74
2022/03/16 00:14:11;;;;;;;;;19.00;18.50;;;;;;;;5185311;27;12197;-74
2022/03/16 00:16:36;;;;;;;;;28.33;26.67;;;;;;;;5166012;27;13651;-74
2022/03/16 00:19:02;;;;;;;;;26.75;21.75;;;;;;;;5185141;27;13228;-74
2022/03/16 00:21:27;;;;;;;;;26.50;25.00;;;;;;;;5184969;27;11411;-74
2022/03/16 00:23:52;;;;;;;;;25.75;20.00;;;;;;;;5184550;27;10559;-74
2022/03/16 00:26:18;;;;;;;;;22.50;21.00;;;;;;;;5184641;27;10324;-74
2022/03/16 00:28:43;;;;;;;;;26.00;22.25;;;;;;;;5184215;27;10359;-73
2022/03/16 00:31:08;;;;;;;;;19.50;19.00;;;;;;;;5164528;27;13770;-74
2022/03/16 00:33:34;;;;;;;;;21.25;19.00;;;;;;;;5184312;27;13377;-74
2022/03/16 00:35:59;;;;;;;;;22.00;22.00;;;;;;;;5184147;27;11313;-73
2022/03/16 00:38:24;;;;;;;;;20.00;20.00;;;;;;;;5184781;27;11762;-74
2022/03/16 00:40:50;;;;;;;;;25.25;18.75;;;;;;;;5184744;27;8786;-73
2022/03/16 00:43:15;;;;;;;;;20.75;18.00;;;;;;;;5184567;27;12193;-75
2022/03/16 00:45:40;;;;;;;;;23.00;19.50;;;;;;;;5184604;27;11425;-75
2022/03/16 00:48:05;;;;;;;;;26.75;23.00;;;;;;;;5165497;27;12823;-74
2022/03/16 00:50:32;;;;;;;;;29.25;25.00;;;;;;;;5183980;27;12311;-75
2022/03/16 00:52:57;;;;;;;;;26.50;20.00;;;;;;;;5184086;27;9892;-75
2022/03/16 00:55:22;;;;;;;;;22.75;22.25;;;;;;;;5182983;27;11472;-74
2022/03/16 00:57:48;;;;;;;;;29.25;22.25;;;;;;;;5183771;27;11558;-75
2022/03/16 01:00:13;;;;;;;;;21.00;18.75;;;;;;;;5164587;27;8810;-75
2022/03/16 01:02:38;;;;;;;;;23.00;19.00;;;;;;;;5183876;27;11486;-75
2022/03/16 01:05:04;;;;;;;;;22.25;21.00;;;;;;;;5164746;27;11901;-75
2022/03/16 01:07:30;;;;;;;;;24.00;19.50;;;;;;;;5184371;27;11639;-75
2022/03/16 01:09:55;;;;;;;;;24.75;20.50;;;;;;;;5184316;27;12198;-74
2022/03/16 01:12:20;;;;;;;;;21.50;18.75;;;;;;;;5183744;27;11492;-75
2022/03/16 01:14:46;;;;;;;;;22.00;19.50;;;;;;;;5183769;27;12337;-75
2022/03/16 01:17:11;;;;;;;;;18.00;18.00;;;;;;;;5183580;27;11569;-75
2022/03/16 01:19:36;;;;;;;;;26.75;25.00;;;;;;;;5183477;27;13400;-75
2022/03/16 01:22:03;;;;;;;;;25.25;22.50;;;;;;;;5183642;27;12213;-75
2022/03/16 01:24:28;;;;;;;;;23.75;19.00;;;;;;;;5183520;27;11963;-75
2022/03/16 01:26:53;;;;;;;;;25.00;17.75;;;;;;;;5184413;27;12185;-75
2022/03/16 01:29:18;;;;;;;;;27.33;23.33;;;;;;;;5184319;27;11567;-75
2022/03/16 01:31:44;;;;;;;;;22.50;20.50;;;;;;;;5183808;27;11600;-75
2022/03/16 01:34:09;;;;;;;;;26.50;22.25;;;;;;;;5183673;27;11627;-75
2022/03/16 01:36:36;;;;;;;;;27.75;23.00;;;;;;;;5183480;27;11395;-75
2022/03/16 01:39:02;;;;;;;;;17.50;16.25;;;;;;;;5183522;27;11467;-75
2022/03/16 01:41:27;;;;;;;;;26.25;21.75;;;;;;;;5182785;27;13261;-75
2022/03/16 01:43:56;;;;;;;;;26.75;25.00;;;;;;;;5183158;27;12234;-75
2022/03/16 01:46:24;;;;;;;;;23.75;22.25;;;;;;;;5183624;27;10437;-75
2022/03/16 01:48:53;;;;;;;;;27.75;23.00;;;;;;;;5164590;27;13491;-75
2022/03/16 01:51:18;;;;;;;;;28.33;25.67;;;;;;;;5164299;27;13650;-75
2022/03/16 01:53:43;;;;;;;;;24.50;24.00;;;;;;;;5183545;27;11617;-75
2022/03/16 01:56:09;;;;;;;;;28.67;25.00;;;;;;;;5183313;27;11591;-73
2022/03/16 01:58:35;;;;;;;;;25.50;25.00;;;;;;;;5164390;27;12445;-74
2022/03/16 02:01:00;;;;;;;;;21.75;20.25;;;;;;;;5163765;27;11119;-75
2022/03/16 02:03:26;;;;;;;;;25.67;22.67;;;;;;;;5182881;27;11361;-74
2022/03/16 02:05:51;;;;;;;;;28.67;21.00;;;;;;;;5182956;27;11847;-73
2022/03/16 02:08:17;;;;;;;;;28.00;22.00;;;;;;;;5182455;27;11484;-74
2022/03/16 02:10:42;;;;;;;;;23.75;21.00;;;;;;;;5182339;27;10188;-73
2022/03/16 02:13:11;;;;;;;;;25.00;21.00;;;;;;;;5163929;27;10815;-74
2022/03/16 02:15:36;;;;;;;;;29.67;27.00;;;;;;;;5182922;27;9011;-74
2022/03/16 02:18:02;;;;;;;;;26.00;23.33;;;;;;;;5163349;27;13553;-74
2022/03/16 02:20:28;;;;;;;;;25.00;22.00;;;;;;;;5183179;27;11373;-73
2022/03/16 02:22:58;;;;;;;;;28.33;24.33;;;;;;;;5183060;27;11736;-73
2022/03/16 02:25:25;;;;;;;;;18.67;16.67;;;;;;;;5183015;27;11503;-74
2022/03/16 02:27:52;;;;;;;;;28.00;25.00;;;;;;;;5182365;27;13299;-74
2022/03/16 02:30:18;;;;;;;;;26.25;20.75;;;;;;;;5182519;27;14678;-74
2022/03/16 02:32:43;;;;;;;;;25.00;22.67;;;;;;;;5183150;27;11560;-73
2022/03/16 02:35:08;;;;;;;;;16.33;14.00;;;;;;;;5183060;27;11359;-72
2022/03/16 02:37:40;;;;;;;;;21.00;20.00;;;;;;;;5182564;27;13747;-74
2022/03/16 02:40:06;;;;;;;;;21.00;20.00;;;;;;;;5182335;27;12531;-75
2022/03/16 02:42:32;;;;;;;;;23.25;17.00;;;;;;;;5182110;27;11519;-73
2022/03/16 02:44:57;;;;;;;;;23.33;21.00;;;;;;;;5182820;27;11564;-74
2022/03/16 02:47:24;;;;;;;;;22.00;20.33;;;;;;;;5183111;27;8773;-73
2022/03/16 02:49:50;;;;;;;;;16.67;16.67;;;;;;;;5163337;27;13161;-74
2022/03/16 02:52:15;;;;;;;;;18.33;17.00;;;;;;;;5182239;27;13192;-73
2022/03/16 02:54:40;;;;;;;;;25.33;18.00;;;;;;;;5181970;27;11557;-74
2022/03/16 02:57:06;;;;;;;;;11.00;11.00;;;;;;;;5182098;27;11688;-74
2022/03/16 02:59:31;;;;;;;;;27.33;21.33;;;;;;;;5182003;27;12772;-74
2022/03/16 03:01:56;;;;;;;;;17.67;17.67;;;;;;;;5181922;27;13928;-74
2022/03/16 03:04:22;;;;;;;;;18.00;16.00;;;;;;;;5182234;27;13268;-74
2022/03/16 03:06:47;;;;;;;;;21.00;21.00;;;;;;;;5182687;27;11504;-73
2022/03/16 03:09:12;;;;;;;;;25.00;20.33;;;;;;;;5182688;27;10505;-73
2022/03/16 03:11:38;;;;;;;;;22.67;19.33;;;;;;;;5163360;27;14525;-74
2022/03/16 03:14:03;;;;;;;;;21.33;21.00;;;;;;;;5182272;27;11668;-74
2022/03/16 03:16:28;;;;;;;;;25.33;20.00;;;;;;;;5182564;27;12356;-74
2022/03/16 03:18:53;;;;;;;;;17.33;16.00;;;;;;;;5185157;27;8873;-74
2022/03/16 03:21:19;;;;;;;;;21.00;20.00;;;;;;;;5186005;27;10350;-73
2022/03/16 03:23:44;;;;;;;;;19.67;19.33;;;;;;;;5186138;27;12202;-73
2022/03/16 03:26:09;;;;;;;;;21.00;18.33;;;;;;;;5185031;27;14649;-74
2022/03/16 03:28:35;;;;;;;;;21.00;18.00;;;;;;;;5166367;27;12525;-73
2022/03/16 03:31:00;;;;;;;;;24.67;20.67;;;;;;;;5165913;27;8805;-74
2022/03/16 03:33:25;;;;;;;;;17.33;15.33;;;;;;;;5185225;27;12205;-74
2022/03/16 03:35:51;;;;;;;;;18.67;18.33;;;;;;;;5166179;27;15416;-75
2022/03/16 03:38:16;;;;;;;;;16.33;16.33;;;;;;;;5184983;27;10346;-73
2022/03/16 03:40:44;;;;;;;;;21.33;20.00;;;;;;;;5185938;27;10502;-74
2022/03/16 03:43:09;;;;;;;;;20.33;20.00;;;;;;;;5185093;27;14476;-74
2022/03/16 03:45:34;;;;;;;;;22.33;21.00;;;;;;;;5184673;27;11525;-73
2022/03/16 03:48:00;;;;;;;;;18.00;18.00;;;;;;;;5185048;27;9169;-74
2022/03/16 03:50:25;;;;;;;;;22.00;21.33;;;;;;;;5185103;27;13361;-74
2022/03/16 03:52:50;;;;;;;;;17.00;17.00;;;;;;;;5165636;27;13589;-74
2022/03/16 03:55:16;;;;;;;;;19.67;18.67;;;;;;;;5184696;27;13168;-73
2022/03/16 03:57:41;;;;;;;;;21.00;20.00;;;;;;;;5185909;27;11390;-73
2022/03/16 04:00:07;;;;;;;;;23.67;21.67;;;;;;;;5185255;27;13338;-74
2022/03/16 04:02:32;;;;;;;;;20.33;17.67;;;;;;;;5185217;27;13004;-75
2022/03/16 04:04:57;;;;;;;;;19.67;17.67;;;;;;;;5185554;27;11731;-74
2022/03/16 04:07:22;;;;;;;;;26.00;22.00;;;;;;;;5184955;27;10288;-73
2022/03/16 04:09:50;;;;;;;;;21.33;19.67;;;;;;;;5165947;27;15554;-74
2022/03/16 04:12:15;;;;;;;;;22.67;19.00;;;;;;;;5184681;27;12846;-74
2022/03/16 04:14:41;;;;;;;;;20.00;18.00;;;;;;;;5185279;27;11800;-74
2022/03/16 04:17:06;;;;;;;;;20.67;20.00;;;;;;;;5185340;27;10520;-74
2022/03/16 04:19:31;;;;;;;;;20.67;20.00;;;;;;;;5185409;27;11585;-74
2022/03/16 04:21:59;;;;;;;;;25.00;24.67;;;;;;;;5185438;27;8846;-74
2022/03/16 04:24:24;;;;;;;;;30.67;23.33;;;;;;;;5165516;27;13800;-74
2022/03/16 04:26:50;;;;;;;;;26.00;22.67;;;;;;;;5184538;27;13394;-74
2022/03/16 04:29:15;;;;;;;;;23.00;20.00;;;;;;;;5184153;27;13468;-73
2022/03/16 04:31:42;;;;;;;;;21.33;20.67;;;;;;;;5184260;27;11430;-74
2022/03/16 04:34:08;;;;;;;;;21.00;21.00;;;;;;;;5184381;27;11634;-73
2022/03/16 04:36:33;;;;;;;;;20.67;18.33;;;;;;;;5184153;27;11428;-75
2022/03/16 04:38:58;;;;;;;;;24.00;19.67;;;;;;;;5184691;27;12175;-74
2022/03/16 04:41:24;;;;;;;;;24.00;21.33;;;;;;;;5183954;27;11523;-75
2022/03/16 04:43:49;;;;;;;;;25.33;20.00;;;;;;;;5184125;27;10160;-74
2022/03/16 04:46:14;;;;;;;;;22.67;20.00;;;;;;;;5164902;27;11598;-74
2022/03/16 04:48:39;;;;;;;;;17.33;14.33;;;;;;;;5183935;27;9420;-74
2022/03/16 04:51:05;;;;;;;;;23.33;20.00;;;;;;;;5183976;27;13217;-74
2022/03/16 04:53:31;;;;;;;;;21.33;16.67;;;;;;;;5184706;27;13289;-73
2022/03/16 04:55:57;;;;;;;;;24.33;20.33;;;;;;;;5164818;27;14440;-73
2022/03/16 04:58:22;;;;;;;;;19.33;17.00;;;;;;;;5165111;27;14363;-73
2022/03/16 05:00:50;;;;;;;;;20.67;17.67;;;;;;;;5184434;27;13428;-73
2022/03/16 05:03:15;;;;;;;;;21.00;21.00;;;;;;;;5183766;27;13291;-73
2022/03/16 05:05:41;;;;;;;;;19.00;19.00;;;;;;;;5183486;27;12235;-74
2022/03/16 05:08:06;;;;;;;;;21.00;17.67;;;;;;;;5184781;27;10474;-73
2022/03/16 05:10:32;;;;;;;;;21.67;21.00;;;;;;;;5184321;27;14428;-74
2022/03/16 05:12:57;;;;;;;;;21.67;19.33;;;;;;;;5184225;27;12224;-73
2022/03/16 05:15:22;;;;;;;;;24.00;21.00;;;;;;;;5184257;27;10291;-73
2022/03/16 05:17:48;;;;;;;;;23.33;19.33;;;;;;;;5183885;27;13658;-73
2022/03/16 05:20:14;;;;;;;;;20.67;18.00;;;;;;;;5164925;27;12541;-73
2022/03/16 05:22:43;;;;;;;;;20.00;17.33;;;;;;;;5183716;27;11594;-73
2022/03/16 05:25:10;;;;;;;;;20.33;18.00;;;;;;;;5183902;27;10999;-73
2022/03/16 05:27:35;;;;;;;;;21.67;20.00;;;;;;;;5164454;27;11420;-73
2022/03/16 05:30:01;;;;;;;;;27.00;18.67;;;;;;;;5183253;27;12569;-74
2022/03/16 05:32:26;;;;;;;;;22.33;20.33;;;;;;;;5182806;27;12316;-74
2022/03/16 05:34:51;;;;;;;;;16.67;16.00;;;;;;;;5184206;27;12449;-74
2022/03/16 05:37:17;;;;;;;;;24.00;21.00;;;;;;;;5183765;27;13291;-72
2022/03/16 05:39:42;;;;;;;;;19.33;18.00;;;;;;;;5183707;27;12454;-73
2022/03/16 05:42:08;;;;;;;;;21.00;19.33;;;;;;;;5163896;27;12697;-72
2022/03/16 05:44:33;;;;;;;;;20.00;17.67;;;;;;;;5183602;27;13357;-73
2022/03/16 05:46:58;;;;;;;;;22.33;20.33;;;;;;;;5183479;27;12717;-73
2022/03/16 05:49:25;;;;;;;;;24.00;23.33;;;;;;;;5183652;27;12324;-73
2022/03/16 05:51:51;;;;;;;;;24.00;20.67;;;;;;;;5182825;27;10437;-73
2022/03/16 05:54:16;;;;;;;;;24.67;22.33;;;;;;;;5183702;27;11414;-73
2022/03/16 05:56:41;;;;;;;;;27.33;23.67;;;;;;;;5183886;27;10496;-73
2022/03/16 05:59:06;;;;;;;;;23.33;22.33;;;;;;;;5183596;27;11383;-74
2022/03/16 06:01:32;;;;;;;;;15.00;10.00;;;;;;;;5183407;27;11661;-72
2022/03/16 06:03:57;;;;;;;;;26.33;23.00;;;;;;;;5182084;27;14382;-71
2022/03/16 06:06:22;;;;;;;;;28.33;24.67;;;;;;;;5182994;27;12386;-72
2022/03/16 06:08:48;;;;;;;;;23.67;23.00;;;;;;;;5182874;27;11457;-73
2022/03/16 06:11:13;;;;;;;;;23.00;21.00;;;;;;;;5163869;27;11739;-73
2022/03/16 06:13:38;;;;;;;;;28.00;23.00;;;;;;;;5182539;27;9528;-72
2022/03/16 06:16:04;;;;;;;;;21.67;20.33;;;;;;;;5182774;27;8881;-74
2022/03/16 06:18:29;;;;;;;;;18.67;18.67;;;;;;;;5182724;27;11442;-74
2022/03/16 06:20:54;;;;;;;;;24.33;21.00;;;;;;;;5181912;27;13277;-73
2022/03/16 06:23:20;;;;;;;;;26.33;21.00;;;;;;;;5182309;27;14592;-74
2022/03/16 06:25:45;;;;;;;;;25.33;17.33;;;;;;;;5183307;27;8792;-76
2022/03/16 06:28:10;;;;;;;;;26.33;23.33;;;;;;;;5164798;27;14532;-76
2022/03/16 06:30:36;;;;;;;;;24.67;20.00;;;;;;;;5163470;27;11596;-73
2022/03/16 06:33:01;;;;;;;;;29.00;27.67;;;;;;;;5183180;27;11379;-77
2022/03/16 06:35:26;;;;;;;;;26.33;21.00;;;;;;;;5179323;27;11941;-77
2022/03/16 06:37:52;;;;;;;;;21.67;21.00;;;;;;;;5164251;27;13573;-77
2022/03/16 06:40:18;;;;;;;;;17.00;15.00;;;;;;;;5162741;27;10229;-81
2022/03/16 06:42:51;;;;;;;;;7.25;5.00;;;;;;;;5182721;27;12179;-80
2022/03/16 06:45:16;;;;;;;;;17.00;16.50;;;;;;;;5182210;27;22780;-80
2022/03/16 06:47:42;;;;;;;;;19.00;15.75;;;;;;;;5182507;27;23810;-77
2022/03/16 06:50:08;;;;;;;;;23.00;20.00;;;;;;;;5182268;27;11689;-80
2022/03/16 06:52:33;;;;;;;;;25.67;21.67;;;;;;;;5183603;27;13560;-77
2022/03/16 06:54:58;;;;;;;;;22.25;18.25;;;;;;;;5186596;27;11595;-78
2022/03/16 06:57:24;;;;;;;;;20.67;17.33;;;;;;;;5186452;27;12310;-75
2022/03/16 06:59:49;;;;;;;;;21.00;17.25;;;;;;;;5186545;27;10590;-78
2022/03/16 07:02:14;;;;;;;;;17.75;17.75;;;;;;;;5185736;27;9501;-76
2022/03/16 07:04:40;;;;;;;;;21.75;18.00;;;;;;;;5160175;27;14626;-76
2022/03/16 07:07:05;;;;;;;;;17.50;15.00;;;;;;;;5165563;27;13777;-75
2022/03/16 07:09:32;;;;;;;;;30.00;25.33;;;;;;;;5164139;27;12167;-75
2022/03/16 07:11:58;;;;;;;;;22.00;21.00;;;;;;;;5164343;27;13505;-77
2022/03/16 07:14:32;;;;;;;;;17.00;13.50;;;;;;;;5145559;27;16592;-75
2022/03/16 07:16:58;;;;;;;;;19.25;12.50;;;;;;;;5164431;27;13962;-75
2022/03/16 07:19:23;;;;;;;;;18.00;13.00;;;;;;;;5145334;27;12393;-75
2022/03/16 07:21:49;;;;;;;;;16.50;13.25;;;;;;;;5145725;27;13391;-76
2022/03/16 07:24:14;;;;;;;;;21.50;16.25;;;;;;;;5164250;27;11418;-75
2022/03/16 07:26:40;;;;;;;;;18.50;16.50;;;;;;;;5163833;27;10404;-76
2022/03/16 07:29:05;;;;;;;;;21.00;17.50;;;;;;;;5164038;27;13281;-76
2022/03/16 07:31:31;;;;;;;;;20.50;14.75;;;;;;;;5164117;27;12199;-76
2022/03/16 07:33:56;;;;;;;;;16.75;14.00;;;;;;;;5164752;27;11516;-76
2022/03/16 07:36:22;;;;;;;;;21.75;19.25;;;;;;;;5164863;27;13409;-76
2022/03/16 07:38:47;;;;;;;;;24.25;17.50;;;;;;;;5164874;27;13304;-76
2022/03/16 07:41:14;;;;;;;;;22.25;17.00;;;;;;;;5164957;27;11596;-77
2022/03/16 07:43:39;;;;;;;;;16.75;14.50;;;;;;;;5164105;27;13306;-75
2022/03/16 07:46:05;;;;;;;;;17.25;11.25;;;;;;;;5163744;27;13808;-76
2022/03/16 07:48:30;;;;;;;;;12.75;10.75;;;;;;;;5164757;27;12775;-76
2022/03/16 07:50:55;;;;;;;;;17.00;15.50;;;;;;;;5162106;27;10348;-76
2022/03/16 07:53:21;;;;;;;;;14.75;11.50;;;;;;;;5179046;27;11594;-76
2022/03/16 07:55:46;;;;;;;;;19.75;13.00;;;;;;;;5185071;27;10627;-75
2022/03/16 07:58:11;;;;;;;;;17.00;13.00;;;;;;;;5184763;27;11356;-73
2022/03/16 08:00:37;;;;;;;;;14.00;13.25;;;;;;;;5182935;27;8889;-86
2022/03/16 08:03:03;;;;;;;;;16.25;14.75;;;;;;;;5164429;27;12146;-86
2022/03/16 08:05:28;;;;;;;;;14.50;13.25;;;;;;;;5183396;27;10552;-77
2022/03/16 08:07:54;;;;;;;;;22.25;18.00;;;;;;;;5182934;27;10393;-76
2022/03/16 08:10:19;;;;;;;;;22.00;19.00;;;;;;;;5182808;27;13393;-79
2022/03/16 08:12:45;;;;;;;;;20.25;17.00;;;;;;;;5163524;27;11705;-81
2022/03/16 08:15:10;;;;;;;;;24.00;18.00;;;;;;;;5180510;27;10368;-77
2022/03/16 08:17:35;;;;;;;;;16.25;13.75;;;;;;;;5181447;27;10364;-78
2022/03/16 08:20:01;;;;;;;;;19.75;19.00;;;;;;;;5163606;27;15290;-78
2022/03/16 08:22:31;;;;;;;;;23.25;17.50;;;;;;;;5183446;27;11508;-78
2022/03/16 08:24:57;;;;;;;;;15.00;15.00;;;;;;;;5182213;27;14447;-78
2022/03/16 08:27:23;;;;;;;;;22.50;17.25;;;;;;;;5182571;27;13871;-78
2022/03/16 08:29:49;;;;;;;;;16.00;16.00;;;;;;;;5161608;27;16144;-78
2022/03/16 08:32:14;;;;;;;;;22.25;20.75;;;;;;;;5181716;27;13229;-77
2022/03/16 08:34:39;;;;;;;;;25.25;25.25;;;;;;;;5182015;27;13474;-77
2022/03/16 08:37:04;;;;;;;;;27.75;22.75;;;;;;;;5163292;27;10720;-77
2022/03/16 08:39:30;;;;;;;;;30.00;25.33;;;;;;;;5179731;27;10368;-80
2022/03/16 08:41:55;;;;;;;;;34.33;29.00;;;;;;;;5181054;27;12317;-79
2022/03/16 08:44:22;;;;;;;;;29.00;25.50;;;;;;;;5183701;27;11443;-79
2022/03/16 08:46:50;;;;;;;;;26.25;26.00;;;;;;;;5177574;27;13319;-79
2022/03/16 08:49:16;;;;;;;;;26.75;22.50;;;;;;;;5166174;27;11504;-79
2022/03/16 08:51:41;;;;;;;;;33.00;31.33;;;;;;;;5182972;27;11454;-79
2022/03/16 08:54:09;;;;;;;;;25.50;23.25;;;;;;;;5164018;27;15576;-79
2022/03/16 08:56:35;;;;;;;;;28.33;26.67;;;;;;;;5182328;27;12273;-78
2022/03/16 08:59:01;;;;;;;;;22.00;19.50;;;;;;;;5164561;27;13525;-77
2022/03/16 09:01:26;;;;;;;;;13.50;12.50;;;;;;;;5181977;27;12244;-78
2022/03/16 09:03:53;;;;;;;;;13.00;10.75;;;;;;;;5181802;27;12360;-79
2022/03/16 09:06:19;;;;;;;;;14.00;10.00;;;;;;;;5183055;27;11535;-78
2022/03/16 09:08:44;;;;;;;;;12.50;12.50;;;;;;;;5182717;27;11536;-78
2022/03/16 09:11:09;;;;;;;;;10.75;10.00;;;;;;;;5182244;27;11427;-79
2022/03/16 09:13:34;;;;;;;;;17.00;14.00;;;;;;;;5182524;27;11594;-78
2022/03/16 09:16:01;;;;;;;;;10.50;10.50;;;;;;;;5181680;27;10339;-78
2022/03/16 09:18:27;;;;;;;;;14.25;12.75;;;;;;;;5164079;27;11853;-79
2022/03/16 09:20:53;;;;;;;;;14.75;10.00;;;;;;;;5182255;27;11452;-80
2022/03/16 09:23:19;;;;;;;;;17.25;15.00;;;;;;;;5179205;27;10601;-77
2022/03/16 09:25:44;;;;;;;;;16.25;15.75;;;;;;;;5182683;27;9853;-77
2022/03/16 09:28:09;;;;;;;;;19.75;16.25;;;;;;;;5182644;27;12204;-76
2022/03/16 09:30:35;;;;;;;;;21.00;17.75;;;;;;;;5183006;27;10473;-76
2022/03/16 09:33:00;;;;;;;;;18.75;17.50;;;;;;;;5183371;27;12234;-77
2022/03/16 09:35:27;;;;;;;;;21.75;19.00;;;;;;;;5164013;27;15444;-74
2022/03/16 09:37:54;;;;;;;;;19.75;15.25;;;;;;;;5182034;27;13494;-77
2022/03/16 09:40:19;;;;;;;;;19.00;15.75;;;;;;;;5182019;27;13417;-76
2022/03/16 09:42:45;;;;;;;;;18.50;17.00;;;;;;;;5182856;27;11467;-75
2022/03/16 09:45:16;;;;;;;;;16.75;16.00;;;;;;;;5183262;27;11451;-76
2022/03/16 09:47:42;;;;;;;;;22.50;19.50;;;;;;;;5180777;27;11520;-74
2022/03/16 09:50:09;;;;;;;;;16.75;15.75;;;;;;;;5182294;27;13432;-74
2022/03/16 09:52:34;;;;;;;;;16.50;15.75;;;;;;;;5181166;27;14309;-75
2022/03/16 09:55:01;;;;;;;;;22.25;19.50;;;;;;;;5161804;27;11564;-75
2022/03/16 09:57:27;;;;;;;;;16.00;13.00;;;;;;;;5181686;27;13879;-75
2022/03/16 09:59:52;;;;;;;;;24.50;17.50;;;;;;;;5181735;27;13272;-75
2022/03/16 10:02:17;;;;;;;;;19.50;17.50;;;;;;;;5182470;27;13461;-76
2022/03/16 10:04:46;;;;;;;;;19.75;19.00;;;;;;;;5162976;27;9032;-75
2022/03/16 10:07:11;;;;;;;;;16.75;16.25;;;;;;;;5179921;27;10442;-75
2022/03/16 10:15:12;;;;;;;;;19.50;17.00;;;;;;;;5180496;27;11523;-75
2022/03/16 10:17:45;;;;;;;;;16.75;14.75;;;;;;;;5160270;27;12717;-75
2022/03/16 10:20:10;;;;;;;;;13.25;13.25;;;;;;;;5181966;27;11688;-73
2022/03/16 10:22:38;;;;;;;;;19.25;17.75;;;;;;;;5181824;27;12206;-74
2022/03/16 10:25:06;;;;;;;;;14.25;11.50;;;;;;;;5181761;27;10543;-74
2022/03/16 10:27:38;;;;;;;;;18.00;16.00;;;;;;;;5162413;27;11983;-75
2022/03/16 10:30:05;;;;;;;;;19.75;18.25;;;;;;;;5181399;27;11549;-76
2022/03/16 10:32:31;;;;;;;;;19.75;19.25;;;;;;;;5162776;27;13470;-89
2022/03/16 10:34:57;;;;;;;;;19.00;19.00;;;;;;;;5163321;27;11484;-78
2022/03/16 10:37:23;;;;;;;;;17.75;17.50;;;;;;;;5180841;27;11474;-77
2022/03/16 10:39:49;;;;;;;;;19.00;18.50;;;;;;;;5162330;27;13679;-78
2022/03/16 10:47:56;;;;;;;;;25.75;23.25;;;;;;;;5180289;27;11429;-76
2022/03/16 10:50:22;;;;;;;;;22.75;19.75;;;;;;;;5161374;27;13406;-77
2022/03/16 10:52:48;;;;;;;;;18.00;16.00;;;;;;;;5180145;27;11368;-76
2022/03/16 10:55:13;;;;;;;;;22.50;20.00;;;;;;;;5180386;27;13403;-79
2022/03/16 10:57:40;;;;;;;;;17.75;16.25;;;;;;;;5177663;27;12328;-76
2022/03/16 11:00:06;;;;;;;;;16.75;16.00;;;;;;;;5180531;27;13363;-75
2022/03/16 11:02:34;;;;;;;;;22.75;18.00;;;;;;;;5180791;27;11669;-75
2022/03/16 11:04:59;;;;;;;;;20.50;18.50;;;;;;;;5182265;27;11424;-77
2022/03/16 11:07:24;;;;;;;;;19.00;18.00;;;;;;;;5162742;27;12118;-75
2022/03/16 11:09:51;;;;;;;;;25.25;21.25;;;;;;;;5181101;27;14338;-76
2022/03/16 11:15:05;;;;;;;;;21.50;19.50;;;;;;;;5178852;27;12245;-78
2022/03/16 11:17:31;;;;;;;;;19.50;18.00;;;;;;;;5180199;27;11452;-76
2022/03/16 11:19:57;;;;;;;;;19.50;17.00;;;;;;;;5158141;27;14127;-76
2022/03/16 11:22:22;;;;;;;;;15.75;14.00;;;;;;;;5176901;27;12197;-74
2022/03/16 11:24:50;;;;;;;;;22.50;19.00;;;;;;;;5179830;27;10372;-74
2022/03/16 11:27:27;;;;;;;;;16.75;16.25;;;;;;;;5179718;27;13005;-74
2022/03/16 11:29:53;;;;;;;;;21.75;16.25;;;;;;;;5176687;27;14551;-74
2022/03/16 11:32:19;;;;;;;;;19.50;18.00;;;;;;;;5179421;27;11496;-74
2022/03/16 11:34:54;;;;;;;;;17.75;17.75;;;;;;;;5180803;27;14761;-76
2022/03/16 11:37:31;;;;;;;;;14.00;13.75;;;;;;;;5179234;27;11499;-74
2022/03/16 11:40:03;;;;;;;;;18.25;17.00;;;;;;;;5180431;27;11507;-75
2022/03/16 11:42:29;;;;;;;;;22.50;21.50;;;;;;;;5183597;27;11997;-75
2022/03/16 11:44:54;;;;;;;;;21.25;18.00;;;;;;;;5183118;27;13839;-76
2022/03/16 11:47:23;;;;;;;;;23.75;22.50;;;;;;;;5183117;27;12397;-76
2022/03/16 11:50:11;;;;;;;;;19.25;16.50;;;;;;;;5183911;27;12307;-73
2022/03/16 11:52:58;;;;;;;;;18.50;16.00;;;;;;;;5161300;27;11820;-72
2022/03/16 11:55:43;;;;;;;;;21.25;17.50;;;;;;;;5162970;27;14345;-75
2022/03/16 11:58:25;;;;;;;;;16.50;13.00;;;;;;;;5164362;27;13848;-75
2022/03/16 12:00:52;;;;;;;;;11.00;10.00;;;;;;;;5162828;27;13677;-75
2022/03/16 12:03:24;;;;;;;;;20.75;16.00;;;;;;;;5163320;27;12171;-76
2022/03/16 12:05:58;;;;;;;;;20.00;19.50;;;;;;;;5163280;27;12330;-76
2022/03/16 12:08:29;;;;;;;;;15.00;12.00;;;;;;;;5145263;27;12842;-76
2022/03/16 12:12:50;;;;;;;;;23.50;20.50;;;;;;;;5145069;27;13780;-75
2022/03/16 12:13:46;;;;;;;;;20.50;18.75;;;;;;;;5162936;27;13467;-76
2022/03/16 12:16:12;;;;;;;;;25.25;22.00;;;;;;;;5144335;27;12556;-75
2022/03/16 12:18:40;;;;;;;;;20.25;15.25;;;;;;;;5177598;27;12524;-74
2022/03/16 12:21:07;;;;;;;;;19.50;18.25;;;;;;;;5183645;27;14120;-78
2022/03/16 12:23:45;;;;;;;;;25.75;19.25;;;;;;;;5165664;27;15023;-81
2022/03/16 12:26:10;;;;;;;;;15.50;13.00;;;;;;;;5184572;27;12847;-79
2022/03/16 12:31:19;;;;;;;;;18.25;18.00;;;;;;;;5183736;27;11569;-78
2022/03/16 12:33:45;;;;;;;;;16.75;15.25;;;;;;;;5183256;27;12745;-78
2022/03/16 12:36:14;;;;;;;;;14.75;11.25;;;;;;;;5182607;27;11510;-78
2022/03/16 12:38:41;;;;;;;;;13.75;13.00;;;;;;;;5183413;27;11543;-78
2022/03/16 12:44:03;;;;;;;;;20.25;18.50;;;;;;;;5181727;27;11443;-77
2022/03/16 12:46:52;;;;;;;;;20.00;18.00;;;;;;;;5181831;27;13753;-76
2022/03/16 12:49:19;;;;;;;;;17.75;14.75;;;;;;;;5167913;27;11477;-79
2022/03/16 12:51:45;;;;;;;;;14.50;14.00;;;;;;;;5163916;27;13828;-87
2022/03/16 12:54:19;;;;;;;;;16.25;14.00;;;;;;;;5182765;27;12720;-74
2022/03/16 12:56:48;;;;;;;;;16.75;14.50;;;;;;;;5183445;27;11427;-76
2022/03/16 12:59:19;;;;;;;;;16.00;13.50;;;;;;;;5182961;27;11441;-72
2022/03/16 13:01:45;;;;;;;;;20.25;19.00;;;;;;;;5183428;27;11514;-71
2022/03/16 13:04:11;;;;;;;;;15.75;13.00;;;;;;;;5183220;27;13425;-71
2022/03/16 13:06:39;;;;;;;;;19.75;17.00;;;;;;;;5164843;27;13514;-71
2022/03/16 13:09:05;;;;;;;;;14.25;13.75;;;;;;;;5164980;27;12066;-72
2022/03/16 13:11:32;;;;;;;;;14.75;13.75;;;;;;;;5183219;27;12589;-75
2022/03/16 13:14:04;;;;;;;;;13.25;13.25;;;;;;;;5183086;27;11485;-74
2022/03/16 13:16:35;;;;;;;;;16.00;14.00;;;;;;;;5183971;27;11402;-75
2022/03/16 13:19:08;;;;;;;;;13.75;13.75;;;;;;;;5182158;27;11642;-74
2022/03/16 13:21:34;;;;;;;;;11.75;11.75;;;;;;;;5183496;27;11493;-74
2022/03/16 13:24:03;;;;;;;;;12.25;11.50;;;;;;;;5182103;27;11405;-74
2022/03/16 13:26:28;;;;;;;;;11.00;11.00;;;;;;;;5174487;27;12662;-74
2022/03/16 13:28:57;;;;;;;;;12.75;11.50;;;;;;;;5181602;27;12829;-74
2022/03/16 13:31:29;;;;;;;;;15.50;12.25;;;;;;;;5180788;27;11615;-73
2022/03/16 13:34:01;;;;;;;;;11.50;11.50;;;;;;;;5182328;27;11612;-74
2022/03/16 13:36:35;;;;;;;;;14.00;12.50;;;;;;;;5181693;27;12582;-74
2022/03/16 13:39:04;;;;;;;;;14.25;13.00;;;;;;;;5182789;27;11435;-75
2022/03/16 13:41:29;;;;;;;;;13.00;11.50;;;;;;;;5164516;27;12412;-76
2022/03/16 13:44:02;;;;;;;;;11.00;10.00;;;;;;;;5182487;27;11604;-76
2022/03/16 13:46:37;;;;;;;;;13.00;12.00;;;;;;;;5167051;27;12657;-76
2022/03/16 13:50:22;;;;;;;;;11.50;11.50;;;;;;;;5070071;27;3924317;-81
2022/03/16 13:52:47;;;;;;;;;7.75;7.75;;;;;;;;5177286;27;22417;-87
2022/03/16 13:55:13;;;;;;;;;8.25;8.25;;;;;;;;5178356;27;22694;-90
2022/03/16 13:57:43;;;;;;;;;13.75;10.75;;;;;;;;5187320;27;10507;-88
2022/03/16 14:00:12;;;;;;;;;9.75;9.75;;;;;;;;5185805;27;25424;-90
2022/03/16 14:02:41;;;;;;;;;13.25;10.00;;;;;;;;5189196;27;24760;-92
2022/03/16 14:05:11;;;;;;;;;10.75;10.75;;;;;;;;5202958;27;22912;-88
2022/03/16 14:07:38;;;;;;;;;7.00;5.25;;;;;;;;5165811;27;13347;-88
2022/03/16 14:10:05;;;;;;;;;12.00;11.00;;;;;;;;5167210;27;24117;-88
2022/03/16 14:12:34;;;;;;;;;12.75;10.00;;;;;;;;5163642;27;25326;-85
2022/03/16 14:15:06;;;;;;;;;12.00;10.50;;;;;;;;5160607;27;12576;-87
2022/03/16 14:17:41;;;;;;;;;12.25;12.25;;;;;;;;5162013;27;11437;-90
2022/03/16 14:20:12;;;;;;;;;12.75;10.00;;;;;;;;5169371;27;12742;-89
2022/03/16 14:22:37;;;;;;;;;14.00;13.00;;;;;;;;5185593;27;12168;-87
2022/03/16 14:25:22;;;;;;;;;17.25;12.50;;;;;;;;5181589;27;12805;-86
2022/03/16 14:27:48;;;;;;;;;14.50;12.50;;;;;;;;5204706;27;11498;-88
2022/03/16 14:30:16;;;;;;;;;10.25;10.25;;;;;;;;5183786;27;11430;-85
2022/03/16 14:32:41;;;;;;;;;12.75;11.50;;;;;;;;5200369;27;11611;-84
2022/03/16 14:35:07;;;;;;;;;14.50;12.00;;;;;;;;5180215;27;11880;-85
2022/03/16 14:37:32;;;;;;;;;15.25;12.75;;;;;;;;5199049;27;11767;-83